Portada
METAR-TAF:

METAR-TAF

Aeropuertos :

Condado de Franklin, Vermont, Estados Unidos

latitud: 44-56-25N, longitud: 073-05-51W, altitud: 69 m

Observación

El informe se hizo hace 1 hora y 36 minutos, a las 15:36 UTC
Viento calma
Temperatura -3°C
Humedad 50%
Presión 1030 hPa
Visibilidad: 16.1 km
Nubes dispersas a una altura de 4500 ft
Nubes dispersas a una altura de 5500 ft
Nubes dispersas a una altura de 11000 ft

METAR: KFSO 191536Z AUTO 00000KT 10SM SCT045 SCT055 SCT110 M03/M12 A3041 RMK AO2 T10281124

Hora: 13:12 (17:12 UTC)


TAF: falta

Observaciones y pronósticos meteorológicos de más de 4000 aeropuertos (mensajes METAR y TAF).

Los puntos amarillos y rojos representan las estaciones disponibles.

Ponga el ratón en el punto deseado para ver el nombre de la estación.

Haga clic para ver las observaciones y los pronósticos meteorológicos.

Para cambiar el mapa : haga clic en los botones verdes con una cruz de color negro para hacer un zoom, en el botón verde con un guión para alejar o en las flechas verdes para mapas adyacentes.


METAR-TAF: